Time;durP1;ratioP1;P1;durP2;ratioP2;P2;SDS_P1;SDS_P2;PMS_P1;PMS_P2;Temp;Humidity;BMP_temperature;BMP_pressure;BME280_temperature;BME280_humidity;BME280_pressure;Samples;Min_cycle;Max_cycle;Signal;HPM_P1;HPM_P2
2022/12/23 00:00:29;;;;;;;32.28;20.85;;;;;;;;;;5008037;28;99434;-75
2022/12/23 00:02:55;;;;;;;33.45;20.20;;;;;;;;;;5007609;28;100103;-76
2022/12/23 00:05:22;;;;;;;41.05;21.70;;;;;;;;;;5007930;28;98529;-77
2022/12/23 00:07:48;;;;;;;46.75;23.70;;;;;;;;;;5007715;28;99563;-75
2022/12/23 00:10:15;;;;;;;40.25;22.73;;;;;;;;;;5008881;28;98964;-77
2022/12/23 00:15:26;;;;;;;38.63;22.70;;;;;;;;;;5007359;28;99347;-74
2022/12/23 00:17:52;;;;;;;46.70;24.60;;;;;;;;;;5003778;28;99911;-76
2022/12/23 00:20:19;;;;;;;43.97;23.63;;;;;;;;;;4988012;28;99598;-75
2022/12/23 00:23:04;;;;;;;49.50;26.27;;;;;;;;;;4988953;28;99909;-75
2022/12/23 00:25:40;;;;;;;52.85;24.92;;;;;;;;;;4987944;28;98313;-75
2022/12/23 00:28:10;;;;;;;59.28;27.30;;;;;;;;;;4988426;28;99645;-75
2022/12/23 00:30:56;;;;;;;63.15;26.58;;;;;;;;;;4987132;28;99273;-75
2022/12/23 00:33:24;;;;;;;62.67;26.83;;;;;;;;;;4992898;28;99083;-75
2022/12/23 00:35:51;;;;;;;49.00;23.88;;;;;;;;;;5008513;28;99418;-75
2022/12/23 00:42:52;;;;;;;50.65;24.27;;;;;;;;;;5007870;28;99957;-75
2022/12/23 00:43:50;;;;;;;51.17;21.27;;;;;;;;;;5007413;28;99006;-75
2022/12/23 00:46:16;;;;;;;44.38;22.75;;;;;;;;;;5007207;28;98676;-75
2022/12/23 00:51:28;;;;;;;53.03;21.60;;;;;;;;;;4968508;28;100189;-76
2022/12/23 00:53:54;;;;;;;42.28;21.42;;;;;;;;;;4982501;28;98271;-76
2022/12/23 00:56:21;;;;;;;47.83;20.70;;;;;;;;;;4988033;28;99496;-76
2022/12/23 00:58:47;;;;;;;46.97;19.92;;;;;;;;;;4986799;28;99876;-76
2022/12/23 01:06:52;;;;;;;37.17;17.63;;;;;;;;;;4988497;28;98257;-76
2022/12/23 01:09:19;;;;;;;28.20;14.68;;;;;;;;;;4987056;28;99476;-76
2022/12/23 01:11:45;;;;;;;36.50;17.98;;;;;;;;;;4987508;28;100007;-76
2022/12/23 01:14:12;;;;;;;27.92;14.50;;;;;;;;;;4987729;28;98633;-76
2022/12/23 01:16:38;;;;;;;32.20;14.82;;;;;;;;;;4986975;28;99693;-76
2022/12/23 01:19:05;;;;;;;29.65;14.50;;;;;;;;;;4987388;28;100132;-76
2022/12/23 01:21:32;;;;;;;29.67;13.57;;;;;;;;;;4986553;28;98292;-76
2022/12/23 01:23:59;;;;;;;28.80;13.15;;;;;;;;;;5003943;28;99895;-76
2022/12/23 01:26:25;;;;;;;29.45;13.90;;;;;;;;;;5007464;28;98242;-76
2022/12/23 01:28:53;;;;;;;24.50;14.68;;;;;;;;;;4991050;28;100026;-76
2022/12/23 01:31:20;;;;;;;29.77;14.75;;;;;;;;;;4987330;28;99030;-76
2022/12/23 01:33:46;;;;;;;33.70;15.95;;;;;;;;;;4987128;28;98434;-76
2022/12/23 01:36:13;;;;;;;25.48;13.77;;;;;;;;;;4986693;28;99553;-76
2022/12/23 01:38:39;;;;;;;27.05;15.13;;;;;;;;;;4986839;28;100152;-76
2022/12/23 01:41:06;;;;;;;31.45;15.43;;;;;;;;;;4998486;28;98620;-76
2022/12/23 01:43:48;;;;;;;35.65;16.70;;;;;;;;;;5004595;28;99913;-76
2022/12/23 01:46:15;;;;;;;36.38;15.05;;;;;;;;;;4988229;28;100220;-76
2022/12/23 01:48:47;;;;;;;33.83;15.77;;;;;;;;;;4986218;28;98779;-76
2022/12/23 01:51:16;;;;;;;29.25;15.73;;;;;;;;;;4986723;28;100170;-76
2022/12/23 01:53:45;;;;;;;32.75;15.18;;;;;;;;;;5001180;28;98597;-76
2022/12/23 01:56:14;;;;;;;36.55;16.17;;;;;;;;;;5007564;28;98630;-76
2022/12/23 01:59:06;;;;;;;34.60;16.13;;;;;;;;;;5005141;28;99948;-76
2022/12/23 02:04:20;;;;;;;39.38;15.80;;;;;;;;;;5006392;28;99669;-75
2022/12/23 02:09:34;;;;;;;33.45;15.45;;;;;;;;;;5010085;28;98337;-76
2022/12/23 02:12:00;;;;;;;29.00;15.20;;;;;;;;;;5006277;28;99992;-76
2022/12/23 02:17:30;;;;;;;35.00;16.42;;;;;;;;;;4989020;28;99375;-76
2022/12/23 02:20:03;;;;;;;29.83;17.10;;;;;;;;;;4986970;27;99022;-76
2022/12/23 02:22:48;;;;;;;29.95;15.82;;;;;;;;;;4986707;28;98249;-76
2022/12/23 02:25:14;;;;;;;32.65;16.23;;;;;;;;;;4986215;28;99550;-76
2022/12/23 02:27:46;;;;;;;21.42;14.25;;;;;;;;;;4988887;28;99099;-76
2022/12/23 02:30:27;;;;;;;34.15;16.42;;;;;;;;;;4990417;28;98594;-76
2022/12/23 02:33:06;;;;;;;20.33;13.43;;;;;;;;;;4993773;28;99405;-75
2022/12/23 02:35:39;;;;;;;26.02;13.95;;;;;;;;;;4990567;28;98629;-76
2022/12/23 02:38:11;;;;;;;31.90;15.63;;;;;;;;;;4990388;28;99470;-76
2022/12/23 02:40:53;;;;;;;20.77;13.70;;;;;;;;;;4988210;28;100006;-75
2022/12/23 02:43:30;;;;;;;24.60;13.88;;;;;;;;;;4989963;28;98233;-76
2022/12/23 02:46:03;;;;;;;20.10;12.27;;;;;;;;;;4990400;28;99409;-75
2022/12/23 02:48:33;;;;;;;24.85;13.55;;;;;;;;;;4993230;28;99757;-75
2022/12/23 02:51:01;;;;;;;23.85;13.60;;;;;;;;;;5009791;28;98238;-76
2022/12/23 02:53:32;;;;;;;27.98;14.20;;;;;;;;;;5008901;28;98547;-75
2022/12/23 02:56:00;;;;;;;24.67;13.80;;;;;;;;;;5012862;28;100052;-75
2022/12/23 02:58:28;;;;;;;26.20;13.95;;;;;;;;;;5009601;28;98946;-76
2022/12/23 03:00:55;;;;;;;31.15;15.43;;;;;;;;;;5008841;28;100006;-76
2022/12/23 03:03:22;;;;;;;25.02;13.52;;;;;;;;;;5009589;28;98732;-76
2022/12/23 03:05:50;;;;;;;28.27;15.32;;;;;;;;;;5008030;28;99515;-76
2022/12/23 03:08:22;;;;;;;33.33;17.10;;;;;;;;;;5008564;28;100052;-76
2022/12/23 03:10:51;;;;;;;35.67;18.02;;;;;;;;;;5009391;28;98278;-76
2022/12/23 03:13:18;;;;;;;35.33;17.27;;;;;;;;;;5009844;28;99648;-76
2022/12/23 03:15:45;;;;;;;36.70;17.52;;;;;;;;;;5000398;28;100670;-75
2022/12/23 03:18:12;;;;;;;43.58;18.50;;;;;;;;;;4989430;28;99676;-75
2022/12/23 03:20:42;;;;;;;38.50;19.85;;;;;;;;;;4989467;28;99445;-75
2022/12/23 03:23:09;;;;;;;36.83;18.73;;;;;;;;;;4989682;28;98420;-75
2022/12/23 03:25:39;;;;;;;46.88;19.98;;;;;;;;;;4989124;28;99350;-76
2022/12/23 03:28:09;;;;;;;35.75;17.35;;;;;;;;;;4988714;28;100043;-75
2022/12/23 03:30:37;;;;;;;39.13;19.90;;;;;;;;;;4988346;28;98254;-76
2022/12/23 03:33:15;;;;;;;47.22;19.45;;;;;;;;;;4989425;28;99627;-75
2022/12/23 03:35:44;;;;;;;46.67;21.30;;;;;;;;;;4988226;28;100215;-75
2022/12/23 03:38:12;;;;;;;38.30;18.38;;;;;;;;;;5008515;28;98284;-75
2022/12/23 03:40:43;;;;;;;51.95;19.90;;;;;;;;;;5007965;28;100128;-75
2022/12/23 03:43:11;;;;;;;43.40;19.58;;;;;;;;;;5006447;28;98411;-75
2022/12/23 03:45:42;;;;;;;40.47;19.15;;;;;;;;;;4989748;28;99497;-75
2022/12/23 03:48:12;;;;;;;39.80;18.63;;;;;;;;;;4990116;28;99289;-75
2022/12/23 03:50:41;;;;;;;39.83;18.90;;;;;;;;;;4989169;28;98483;-75
2022/12/23 03:53:28;;;;;;;45.72;19.48;;;;;;;;;;4990085;28;98724;-76
2022/12/23 03:55:57;;;;;;;39.50;19.60;;;;;;;;;;4988837;28;100303;-76
2022/12/23 03:58:26;;;;;;;43.97;20.42;;;;;;;;;;4988452;28;99040;-76
2022/12/23 04:00:58;;;;;;;52.08;20.17;;;;;;;;;;4992072;28;99921;-76
2022/12/23 04:03:51;;;;;;;48.88;21.00;;;;;;;;;;4988061;28;98307;-75
2022/12/23 04:06:18;;;;;;;49.17;20.38;;;;;;;;;;4980275;28;99758;-74
2022/12/23 04:08:46;;;;;;;43.20;20.17;;;;;;;;;;4988191;28;99138;-76
2022/12/23 04:11:13;;;;;;;43.47;20.73;;;;;;;;;;4987624;28;98324;-75
2022/12/23 04:13:39;;;;;;;40.75;20.48;;;;;;;;;;4989347;28;99494;-76
2022/12/23 04:16:06;;;;;;;41.55;20.27;;;;;;;;;;4988386;28;100304;-75
2022/12/23 04:18:32;;;;;;;38.03;19.35;;;;;;;;;;4987551;28;98382;-75
2022/12/23 04:20:59;;;;;;;33.75;18.40;;;;;;;;;;4987743;28;98708;-76
2022/12/23 04:23:25;;;;;;;39.08;19.60;;;;;;;;;;4991466;28;99146;-75
2022/12/23 04:25:51;;;;;;;44.42;20.60;;;;;;;;;;4988640;27;98537;-75
2022/12/23 04:28:18;;;;;;;38.30;18.88;;;;;;;;;;4988212;28;99963;-75
2022/12/23 04:30:45;;;;;;;31.77;16.85;;;;;;;;;;4988571;28;98252;-75
2022/12/23 04:33:11;;;;;;;40.00;19.33;;;;;;;;;;4988014;28;98870;-75
2022/12/23 04:35:38;;;;;;;31.92;17.70;;;;;;;;;;4987958;28;100382;-75
2022/12/23 04:38:04;;;;;;;37.05;18.38;;;;;;;;;;4988617;28;98303;-75
2022/12/23 04:40:31;;;;;;;28.52;16.83;;;;;;;;;;4987617;28;98814;-74
2022/12/23 04:42:57;;;;;;;31.92;17.27;;;;;;;;;;4988065;28;99954;-75
2022/12/23 04:45:23;;;;;;;28.45;16.77;;;;;;;;;;4989325;28;98602;-75
2022/12/23 04:47:50;;;;;;;35.30;18.08;;;;;;;;;;4992800;28;100102;-75
2022/12/23 04:50:16;;;;;;;30.88;17.92;;;;;;;;;;4987556;28;98280;-75
2022/12/23 04:52:43;;;;;;;32.22;16.67;;;;;;;;;;4987357;28;99900;-75
2022/12/23 04:55:09;;;;;;;29.20;16.55;;;;;;;;;;5003896;28;100062;-75
2022/12/23 04:57:36;;;;;;;30.25;17.40;;;;;;;;;;5007362;28;98259;-75
2022/12/23 05:00:03;;;;;;;35.38;17.23;;;;;;;;;;5007181;28;99288;-75
2022/12/23 05:02:29;;;;;;;35.15;18.27;;;;;;;;;;5007424;28;100421;-75
2022/12/23 05:04:56;;;;;;;33.63;17.40;;;;;;;;;;5007239;28;98231;-75
2022/12/23 05:07:22;;;;;;;42.42;18.98;;;;;;;;;;5009087;28;98930;-75
2022/12/23 05:09:49;;;;;;;38.33;17.38;;;;;;;;;;4998921;28;98175;-75
2022/12/23 05:12:15;;;;;;;32.45;17.25;;;;;;;;;;4987834;28;99471;-76
2022/12/23 05:14:42;;;;;;;34.35;17.25;;;;;;;;;;4986633;28;100268;-75
2022/12/23 05:17:08;;;;;;;36.05;17.90;;;;;;;;;;4987752;28;99143;-75
2022/12/23 05:19:34;;;;;;;41.42;17.85;;;;;;;;;;4987503;28;99510;-75
2022/12/23 05:22:01;;;;;;;49.90;26.48;;;;;;;;;;4986714;28;99662;-75
2022/12/23 05:24:27;;;;;;;65.47;30.33;;;;;;;;;;4987288;28;98344;-75
2022/12/23 05:26:53;;;;;;;77.20;33.35;;;;;;;;;;4991020;28;99687;-75
2022/12/23 05:29:25;;;;;;;84.40;36.23;;;;;;;;;;4986620;28;98371;-75
2022/12/23 05:31:52;;;;;;;79.85;33.90;;;;;;;;;;4987649;28;100176;-74
2022/12/23 05:34:18;;;;;;;93.95;36.25;;;;;;;;;;4986821;28;100013;-74
2022/12/23 05:36:45;;;;;;;100.25;39.25;;;;;;;;;;4986485;28;98401;-74
2022/12/23 05:39:11;;;;;;;93.50;37.85;;;;;;;;;;4998996;28;99487;-74
2022/12/23 05:41:37;;;;;;;119.75;41.15;;;;;;;;;;4995881;28;100215;-74
2022/12/23 05:44:04;;;;;;;112.88;40.78;;;;;;;;;;4987485;28;98043;-75
2022/12/23 05:46:30;;;;;;;107.90;40.85;;;;;;;;;;4987287;28;99485;-74
2022/12/23 05:48:57;;;;;;;109.53;40.55;;;;;;;;;;4989580;28;99815;-74
2022/12/23 05:51:23;;;;;;;94.85;39.95;;;;;;;;;;4987499;28;99534;-74
2022/12/23 05:53:49;;;;;;;126.13;41.25;;;;;;;;;;4987583;28;100016;-75
2022/12/23 05:56:16;;;;;;;97.85;38.60;;;;;;;;;;5005581;28;99048;-74
2022/12/23 05:58:42;;;;;;;107.13;39.78;;;;;;;;;;5006015;28;99543;-74
2022/12/23 06:01:09;;;;;;;112.60;40.88;;;;;;;;;;5007585;28;99953;-75
2022/12/23 06:03:35;;;;;;;102.22;39.90;;;;;;;;;;5009478;28;98232;-75
2022/12/23 06:06:02;;;;;;;136.48;41.47;;;;;;;;;;5010896;28;99616;-75
2022/12/23 06:08:28;;;;;;;116.85;40.15;;;;;;;;;;5010053;28;99908;-75
2022/12/23 06:10:54;;;;;;;103.35;37.97;;;;;;;;;;5013161;28;98298;-76
2022/12/23 06:13:21;;;;;;;133.15;39.97;;;;;;;;;;4997288;28;99991;-75
2022/12/23 06:15:47;;;;;;;109.30;39.50;;;;;;;;;;4990494;28;98293;-75
2022/12/23 06:18:14;;;;;;;111.72;38.08;;;;;;;;;;4990172;28;99540;-75
2022/12/23 06:20:40;;;;;;;106.07;36.80;;;;;;;;;;4990089;28;100370;-75
2022/12/23 06:23:06;;;;;;;154.95;40.17;;;;;;;;;;4989598;28;98257;-76
2022/12/23 06:25:33;;;;;;;144.43;40.17;;;;;;;;;;4989198;28;99673;-75
2022/12/23 06:27:59;;;;;;;169.35;44.33;;;;;;;;;;4989757;28;99162;-75
2022/12/23 06:30:26;;;;;;;148.85;40.70;;;;;;;;;;4990720;28;98313;-75
2022/12/23 06:32:52;;;;;;;139.68;40.10;;;;;;;;;;4992639;28;99359;-76
2022/12/23 06:35:18;;;;;;;159.32;39.38;;;;;;;;;;4990928;28;98712;-74
2022/12/23 06:37:45;;;;;;;150.95;41.40;;;;;;;;;;4989910;28;99538;-75
2022/12/23 06:40:11;;;;;;;160.77;53.08;;;;;;;;;;4989311;28;99977;-75
2022/12/23 06:42:38;;;;;;;158.90;41.85;;;;;;;;;;4990002;28;98908;-75
2022/12/23 06:45:04;;;;;;;189.70;42.67;;;;;;;;;;4989351;28;99493;-75
2022/12/23 06:47:31;;;;;;;146.30;42.20;;;;;;;;;;5002160;28;100196;-75
2022/12/23 06:49:57;;;;;;;148.55;40.85;;;;;;;;;;4989839;28;98311;-75
2022/12/23 06:52:23;;;;;;;120.68;38.38;;;;;;;;;;4988895;28;99470;-78
2022/12/23 06:54:50;;;;;;;170.45;41.08;;;;;;;;;;4992977;28;99286;-75
2022/12/23 06:57:16;;;;;;;120.18;38.58;;;;;;;;;;4990331;28;99092;-73
2022/12/23 06:59:43;;;;;;;118.50;37.63;;;;;;;;;;4988805;28;99487;-74
2022/12/23 07:02:10;;;;;;;151.00;41.53;;;;;;;;;;4990038;28;98256;-75
2022/12/23 07:04:37;;;;;;;122.65;34.47;;;;;;;;;;4985220;28;99399;-75
2022/12/23 07:07:03;;;;;;;108.88;30.95;;;;;;;;;;4985871;28;99136;-76
2022/12/23 07:09:29;;;;;;;64.47;24.65;;;;;;;;;;4986806;28;99766;-75
2022/12/23 07:11:56;;;;;;;61.72;23.05;;;;;;;;;;4988422;28;99686;-75
2022/12/23 07:14:22;;;;;;;45.53;20.10;;;;;;;;;;4987890;28;99989;-74
2022/12/23 07:16:48;;;;;;;47.35;18.52;;;;;;;;;;4991836;28;98216;-75
2022/12/23 07:19:15;;;;;;;58.00;20.65;;;;;;;;;;4985672;28;99849;-77
2022/12/23 07:21:41;;;;;;;42.92;17.48;;;;;;;;;;4986454;28;98909;-74
2022/12/23 07:24:08;;;;;;;47.90;18.50;;;;;;;;;;4986404;28;100011;-75
2022/12/23 07:26:34;;;;;;;38.05;17.52;;;;;;;;;;4981027;27;99123;-77
2022/12/23 07:29:01;;;;;;;34.20;17.02;;;;;;;;;;4985748;28;98318;-77
2022/12/23 07:31:27;;;;;;;46.00;20.10;;;;;;;;;;4988906;28;98561;-77
2022/12/23 07:33:54;;;;;;;36.17;17.70;;;;;;;;;;4989269;28;99930;-76
2022/12/23 07:36:20;;;;;;;18.77;10.35;;;;;;;;;;4989195;28;98301;-74
2022/12/23 07:38:52;;;;;;;18.60;11.60;;;;;;;;;;4985256;28;100220;-78
2022/12/23 07:41:19;;;;;;;12.02;10.27;;;;;;;;;;4987450;28;98335;-82
2022/12/23 07:43:45;;;;;;;13.43;10.90;;;;;;;;;;4984337;28;99110;-78
2022/12/23 07:46:11;;;;;;;11.18;10.07;;;;;;;;;;4986545;28;100066;-80
2022/12/23 07:48:38;;;;;;;12.23;10.25;;;;;;;;;;4985936;28;99107;-80
2022/12/23 07:51:05;;;;;;;17.20;11.88;;;;;;;;;;4987594;28;99373;-79
2022/12/23 07:53:31;;;;;;;18.77;12.23;;;;;;;;;;4984401;28;99959;-80
2022/12/23 07:55:58;;;;;;;16.70;12.20;;;;;;;;;;4986180;27;99695;-78
2022/12/23 07:58:24;;;;;;;17.48;11.05;;;;;;;;;;4991475;28;99380;-79
2022/12/23 08:00:57;;;;;;;15.70;11.18;;;;;;;;;;4988205;27;98291;-79
2022/12/23 08:03:23;;;;;;;20.20;13.13;;;;;;;;;;4984787;28;98946;-78
2022/12/23 08:05:57;;;;;;;18.77;13.32;;;;;;;;;;4987712;28;99230;-76
2022/12/23 08:08:24;;;;;;;19.55;14.13;;;;;;;;;;4988084;28;98265;-77
2022/12/23 08:10:54;;;;;;;17.35;12.00;;;;;;;;;;4986745;28;99416;-78
2022/12/23 08:13:21;;;;;;;24.80;14.70;;;;;;;;;;4985271;28;99093;-76
2022/12/23 08:15:47;;;;;;;33.30;16.52;;;;;;;;;;4985699;28;98286;-77
2022/12/23 08:18:13;;;;;;;29.50;17.58;;;;;;;;;;4990323;28;99326;-79
2022/12/23 08:20:40;;;;;;;43.25;17.77;;;;;;;;;;4989757;28;100027;-77
2022/12/23 08:23:06;;;;;;;39.35;18.00;;;;;;;;;;4986777;28;99595;-77
2022/12/23 08:25:33;;;;;;;50.15;18.77;;;;;;;;;;4981922;28;100164;-77
2022/12/23 08:27:59;;;;;;;47.75;19.52;;;;;;;;;;4986397;28;98243;-77
2022/12/23 08:30:25;;;;;;;50.63;20.55;;;;;;;;;;4988697;28;99472;-79
2022/12/23 08:32:52;;;;;;;33.78;17.55;;;;;;;;;;4988728;28;99719;-78
2022/12/23 08:35:18;;;;;;;32.90;17.63;;;;;;;;;;4978965;28;98827;-78
2022/12/23 08:37:44;;;;;;;41.63;18.40;;;;;;;;;;4984767;28;98617;-83
2022/12/23 08:40:11;;;;;;;52.60;19.60;;;;;;;;;;4984983;28;100314;-79
2022/12/23 08:42:37;;;;;;;46.30;20.75;;;;;;;;;;4971672;28;98343;-78
2022/12/23 08:45:04;;;;;;;47.35;19.85;;;;;;;;;;4975883;28;99925;-78
2022/12/23 08:47:30;;;;;;;53.92;21.90;;;;;;;;;;4987939;28;98233;-77
2022/12/23 08:49:57;;;;;;;62.15;22.60;;;;;;;;;;4987604;28;98602;-77
2022/12/23 08:52:23;;;;;;;32.83;15.90;;;;;;;;;;4984547;28;99796;-78
2022/12/23 08:54:49;;;;;;;42.95;21.05;;;;;;;;;;4983297;28;99378;-78
2022/12/23 08:57:16;;;;;;;75.22;24.70;;;;;;;;;;4985272;28;99836;-78
2022/12/23 08:59:42;;;;;;;67.90;25.73;;;;;;;;;;4984751;28;100115;-79
2022/12/23 09:02:10;;;;;;;46.22;18.00;;;;;;;;;;4994565;28;98322;-79
2022/12/23 09:04:37;;;;;;;49.30;22.83;;;;;;;;;;4992523;28;99702;-77
2022/12/23 09:07:03;;;;;;;37.47;20.83;;;;;;;;;;4986863;28;98357;-78
2022/12/23 09:09:29;;;;;;;53.78;22.45;;;;;;;;;;5005518;28;98622;-78
2022/12/23 09:11:56;;;;;;;51.83;23.25;;;;;;;;;;5007188;28;99953;-78
2022/12/23 09:14:23;;;;;;;54.30;24.40;;;;;;;;;;5005826;28;98848;-78
2022/12/23 09:16:51;;;;;;;62.58;24.17;;;;;;;;;;5007734;28;99442;-76
2022/12/23 09:19:17;;;;;;;75.28;25.45;;;;;;;;;;5007252;28;99310;-76
2022/12/23 09:21:44;;;;;;;64.45;25.50;;;;;;;;;;5006466;28;98349;-77
2022/12/23 09:24:10;;;;;;;58.85;25.35;;;;;;;;;;5007469;28;99999;-77
2022/12/23 09:26:36;;;;;;;58.53;24.63;;;;;;;;;;5009960;28;98249;-77
2022/12/23 09:29:03;;;;;;;65.82;25.15;;;;;;;;;;5007017;28;99464;-77
2022/12/23 09:31:29;;;;;;;57.05;24.48;;;;;;;;;;5007378;28;99457;-77
2022/12/23 09:34:03;;;;;;;57.90;24.88;;;;;;;;;;5007058;28;98797;-77
2022/12/23 09:36:29;;;;;;;75.03;27.75;;;;;;;;;;5006351;28;98553;-77
2022/12/23 09:38:56;;;;;;;64.85;26.48;;;;;;;;;;5006400;28;100292;-77
2022/12/23 09:41:42;;;;;;;74.05;26.50;;;;;;;;;;5006573;28;99351;-77
2022/12/23 09:44:27;;;;;;;74.15;26.35;;;;;;;;;;5007409;28;99745;-79
2022/12/23 09:46:56;;;;;;;83.45;27.67;;;;;;;;;;5010104;28;99277;-78
2022/12/23 09:49:22;;;;;;;82.75;25.45;;;;;;;;;;5006355;28;98464;-78
2022/12/23 09:51:51;;;;;;;117.32;27.85;;;;;;;;;;5007005;28;100686;-78
2022/12/23 09:54:27;;;;;;;156.18;30.15;;;;;;;;;;5007293;28;98702;-78
2022/12/23 09:57:16;;;;;;;158.77;28.80;;;;;;;;;;5007144;28;99547;-77
2022/12/23 09:59:50;;;;;;;136.95;27.85;;;;;;;;;;5006735;28;100011;-78
2022/12/23 10:02:31;;;;;;;128.27;28.13;;;;;;;;;;5006611;28;98368;-78
2022/12/23 10:05:17;;;;;;;127.43;27.73;;;;;;;;;;5006364;28;100099;-78
2022/12/23 10:08:06;;;;;;;185.18;30.77;;;;;;;;;;5005617;28;98979;-77
2022/12/23 10:10:42;;;;;;;141.10;25.48;;;;;;;;;;5009097;28;98343;-77
2022/12/23 10:13:18;;;;;;;124.93;26.85;;;;;;;;;;5006901;28;100351;-78
2022/12/23 10:15:46;;;;;;;133.55;29.05;;;;;;;;;;5007456;28;98108;-78
2022/12/23 10:18:33;;;;;;;153.15;29.58;;;;;;;;;;5006704;28;99411;-78
2022/12/23 10:21:18;;;;;;;131.27;28.40;;;;;;;;;;4995122;28;99560;-79
2022/12/23 10:23:52;;;;;;;89.47;26.27;;;;;;;;;;5005880;28;98351;-78
2022/12/23 10:26:21;;;;;;;96.97;25.20;;;;;;;;;;5006763;28;99410;-78
2022/12/23 10:28:49;;;;;;;92.85;25.30;;;;;;;;;;5006631;28;100338;-77
2022/12/23 10:31:21;;;;;;;75.68;22.20;;;;;;;;;;5005295;28;98778;-77
2022/12/23 10:34:19;;;;;;;98.72;24.67;;;;;;;;;;5009067;28;98642;-79
2022/12/23 10:36:59;;;;;;;80.30;23.27;;;;;;;;;;5005713;28;98283;-78
2022/12/23 10:39:28;;;;;;;98.47;23.65;;;;;;;;;;5005830;28;98663;-78
2022/12/23 10:42:06;;;;;;;85.28;22.80;;;;;;;;;;5006592;28;100168;-78
2022/12/23 10:44:40;;;;;;;87.43;23.77;;;;;;;;;;5005595;28;98248;-77
2022/12/23 10:47:23;;;;;;;82.57;23.45;;;;;;;;;;5007322;28;99368;-77
2022/12/23 10:49:52;;;;;;;73.28;23.83;;;;;;;;;;5010370;28;99050;-77
2022/12/23 10:52:24;;;;;;;77.40;23.35;;;;;;;;;;5010259;28;98354;-77
2022/12/23 10:54:50;;;;;;;76.35;24.33;;;;;;;;;;5010075;28;98684;-77
2022/12/23 10:57:18;;;;;;;78.82;23.98;;;;;;;;;;5012166;28;99160;-77
2022/12/23 10:59:44;;;;;;;75.70;22.38;;;;;;;;;;5009384;28;99663;-78
2022/12/23 11:02:11;;;;;;;79.03;23.90;;;;;;;;;;5009226;28;99033;-79
2022/12/23 11:04:42;;;;;;;61.17;21.42;;;;;;;;;;5009499;28;98286;-78
2022/12/23 11:07:10;;;;;;;73.93;21.48;;;;;;;;;;5008404;28;98901;-77
2022/12/23 11:10:01;;;;;;;69.10;24.15;;;;;;;;;;5009390;28;100360;-77
2022/12/23 11:12:43;;;;;;;83.50;21.92;;;;;;;;;;5008710;28;98247;-77
2022/12/23 11:15:24;;;;;;;78.70;23.27;;;;;;;;;;5010063;28;99473;-78
2022/12/23 11:18:16;;;;;;;59.97;21.35;;;;;;;;;;5009769;28;99998;-77
2022/12/23 11:20:44;;;;;;;68.32;22.55;;;;;;;;;;5009420;28;99242;-78
2022/12/23 11:23:31;;;;;;;72.75;22.45;;;;;;;;;;5008001;28;99279;-78
2022/12/23 11:25:59;;;;;;;73.18;23.95;;;;;;;;;;5009631;28;99589;-77
2022/12/23 11:28:26;;;;;;;91.50;26.65;;;;;;;;;;5008666;28;100276;-77
2022/12/23 11:30:53;;;;;;;76.18;25.90;;;;;;;;;;5008600;28;99132;-79
2022/12/23 11:33:26;;;;;;;75.05;27.08;;;;;;;;;;5008734;28;98460;-78
2022/12/23 11:35:59;;;;;;;91.70;29.30;;;;;;;;;;5009214;28;99402;-79
2022/12/23 11:38:25;;;;;;;;;;;;;;;;;;5009257;28;99139;-78
2022/12/23 11:40:52;;;;;;;67.63;25.05;;;;;;;;;;5011405;28;123038;-78
2022/12/23 11:43:19;;;;;;;87.75;29.98;;;;;;;;;;5009152;28;99155;-78
2022/12/23 11:45:46;;;;;;;97.93;32.45;;;;;;;;;;5008909;28;98393;-79
2022/12/23 11:48:29;;;;;;;94.70;30.40;;;;;;;;;;5007665;28;99405;-79
2022/12/23 11:51:00;;;;;;;105.27;31.80;;;;;;;;;;5008948;28;100055;-81
2022/12/23 11:53:27;;;;;;;107.03;35.50;;;;;;;;;;5008445;28;98286;-82
2022/12/23 11:56:11;;;;;;;105.95;35.15;;;;;;;;;;5008433;28;99378;-83
2022/12/23 11:58:53;;;;;;;116.25;35.85;;;;;;;;;;5007402;28;100047;-84
2022/12/23 12:01:22;;;;;;;124.28;39.20;;;;;;;;;;5009002;28;98284;-84
2022/12/23 12:03:52;;;;;;;120.20;37.50;;;;;;;;;;5011492;28;99589;-83
2022/12/23 12:06:20;;;;;;;129.32;40.72;;;;;;;;;;5008868;28;98357;-85
2022/12/23 12:08:48;;;;;;;136.05;40.90;;;;;;;;;;5008115;28;99435;-82
2022/12/23 12:11:17;;;;;;;142.98;41.55;;;;;;;;;;5007898;28;98931;-81
2022/12/23 12:13:44;;;;;;;142.05;43.53;;;;;;;;;;5007871;28;99812;-80
2022/12/23 12:16:16;;;;;;;159.55;43.72;;;;;;;;;;5007810;28;98748;-78
2022/12/23 12:18:44;;;;;;;151.13;41.00;;;;;;;;;;5008654;28;100567;-78
2022/12/23 12:21:22;;;;;;;202.20;45.92;;;;;;;;;;5008458;28;98259;-78
2022/12/23 12:23:50;;;;;;;132.90;42.40;;;;;;;;;;5007810;28;99478;-77
2022/12/23 12:26:37;;;;;;;144.38;43.63;;;;;;;;;;5011369;28;100107;-78
2022/12/23 12:29:09;;;;;;;160.88;42.97;;;;;;;;;;5008559;28;98930;-77
2022/12/23 12:31:41;;;;;;;151.18;43.13;;;;;;;;;;5007072;28;99023;-78
2022/12/23 12:34:17;;;;;;;171.32;43.67;;;;;;;;;;5008056;28;98202;-78
2022/12/23 12:36:51;;;;;;;135.90;41.05;;;;;;;;;;5007085;28;98740;-78
2022/12/23 12:39:22;;;;;;;141.35;39.80;;;;;;;;;;5006819;28;99199;-78
2022/12/23 12:41:51;;;;;;;147.25;41.10;;;;;;;;;;5008090;28;98191;-78
2022/12/23 12:44:20;;;;;;;164.27;42.00;;;;;;;;;;5007463;28;99087;-78
2022/12/23 12:46:50;;;;;;;159.55;40.95;;;;;;;;;;5007506;28;99942;-78
2022/12/23 12:49:23;;;;;;;142.55;38.95;;;;;;;;;;5011339;28;98721;-78
2022/12/23 12:51:54;;;;;;;174.27;41.70;;;;;;;;;;5007449;28;100255;-78
2022/12/23 12:54:32;;;;;;;152.65;37.70;;;;;;;;;;5008057;28;98277;-78
2022/12/23 12:57:01;;;;;;;158.15;39.22;;;;;;;;;;5008362;28;99437;-77
2022/12/23 12:59:29;;;;;;;139.50;37.97;;;;;;;;;;5006869;28;99990;-77
2022/12/23 13:02:10;;;;;;;176.80;41.22;;;;;;;;;;5007953;28;98244;-77
2022/12/23 13:04:55;;;;;;;136.23;38.92;;;;;;;;;;5006963;28;99696;-77
2022/12/23 13:07:42;;;;;;;160.75;40.00;;;;;;;;;;5006857;28;99212;-77
2022/12/23 13:10:14;;;;;;;127.45;38.22;;;;;;;;;;5006872;28;98347;-78
2022/12/23 13:12:47;;;;;;;121.63;36.47;;;;;;;;;;5010936;28;99552;-76
2022/12/23 13:15:16;;;;;;;121.53;36.70;;;;;;;;;;5008393;28;98322;-76
2022/12/23 13:18:02;;;;;;;115.60;36.13;;;;;;;;;;5008237;28;99662;-77
2022/12/23 13:20:29;;;;;;;133.60;41.30;;;;;;;;;;5006875;28;100321;-77
2022/12/23 13:23:01;;;;;;;128.50;44.97;;;;;;;;;;5007859;28;98254;-78
2022/12/23 13:25:55;;;;;;;158.50;47.23;;;;;;;;;;5006909;28;98986;-76
2022/12/23 13:28:29;;;;;;;119.80;37.92;;;;;;;;;;5006663;28;99147;-77
2022/12/23 13:31:04;;;;;;;137.93;39.83;;;;;;;;;;5006855;28;98323;-76
2022/12/23 13:33:34;;;;;;;133.40;38.08;;;;;;;;;;5006269;28;98675;-75
2022/12/23 13:36:11;;;;;;;136.95;40.22;;;;;;;;;;5010603;28;100514;-76
2022/12/23 13:38:43;;;;;;;149.68;38.72;;;;;;;;;;5006801;28;98425;-77
2022/12/23 13:41:25;;;;;;;144.80;42.53;;;;;;;;;;5005764;28;99138;-77
2022/12/23 13:43:56;;;;;;;129.90;37.42;;;;;;;;;;5006691;28;98358;-76
2022/12/23 13:46:28;;;;;;;150.52;38.63;;;;;;;;;;5007185;28;99663;-78
2022/12/23 13:49:00;;;;;;;156.63;39.00;;;;;;;;;;5006071;28;99201;-76
2022/12/23 13:51:31;;;;;;;151.10;38.40;;;;;;;;;;5007097;28;98410;-77
2022/12/23 13:54:01;;;;;;;103.03;35.03;;;;;;;;;;5007237;28;99468;-76
2022/12/23 13:56:36;;;;;;;125.05;36.40;;;;;;;;;;5009185;28;100190;-75
2022/12/23 13:59:06;;;;;;;135.38;40.88;;;;;;;;;;5007014;28;99519;-76
2022/12/23 14:01:35;;;;;;;114.35;33.25;;;;;;;;;;5006304;28;100106;-75
2022/12/23 14:04:20;;;;;;;135.73;40.08;;;;;;;;;;5006969;28;98901;-75
2022/12/23 14:06:46;;;;;;;109.57;29.27;;;;;;;;;;5006503;28;99443;-76
2022/12/23 14:09:15;;;;;;;123.63;34.88;;;;;;;;;;5005891;28;100139;-75
2022/12/23 14:11:42;;;;;;;150.75;37.67;;;;;;;;;;5006638;28;98632;-74
2022/12/23 14:14:16;;;;;;;143.70;37.17;;;;;;;;;;5006854;28;99757;-74
2022/12/23 14:17:11;;;;;;;131.43;36.95;;;;;;;;;;5005772;28;98949;-74
2022/12/23 14:19:54;;;;;;;119.53;34.92;;;;;;;;;;5009638;28;98267;-74
2022/12/23 14:22:39;;;;;;;119.72;34.05;;;;;;;;;;5005874;28;99962;-74
2022/12/23 14:25:23;;;;;;;124.50;34.67;;;;;;;;;;5010272;28;98264;-75
2022/12/23 14:27:50;;;;;;;141.38;36.47;;;;;;;;;;5010232;28;99707;-75
2022/12/23 14:30:29;;;;;;;100.30;33.58;;;;;;;;;;5009277;28;98984;-75
2022/12/23 14:32:57;;;;;;;108.45;32.72;;;;;;;;;;5009737;28;98349;-75
2022/12/23 14:35:47;;;;;;;107.03;32.50;;;;;;;;;;5010163;28;99715;-74
2022/12/23 14:38:13;;;;;;;90.47;31.00;;;;;;;;;;5009350;28;101387;-75
2022/12/23 14:40:42;;;;;;;92.50;30.52;;;;;;;;;;5009615;28;98341;-75
2022/12/23 14:43:21;;;;;;;99.28;33.88;;;;;;;;;;5011800;28;98801;-75
2022/12/23 14:45:49;;;;;;;85.15;30.50;;;;;;;;;;5009454;28;98522;-76
2022/12/23 14:48:39;;;;;;;121.00;43.67;;;;;;;;;;5008938;28;99531;-75
2022/12/23 14:51:08;;;;;;;121.63;41.05;;;;;;;;;;4980147;28;100175;-76